createdAt,value
2023-04-22T00:02:17.483Z,74.01
2023-04-22T00:04:46.629Z,74.36
2023-04-22T00:07:15.828Z,74.54
2023-04-22T00:09:44.119Z,74.26
2023-04-22T00:12:12.494Z,73.99
2023-04-22T00:14:40.508Z,72.63
2023-04-22T00:17:08.369Z,71.00
2023-04-22T00:19:37.403Z,72.67
2023-04-22T00:22:05.754Z,73.73
2023-04-22T00:24:33.645Z,75.05
2023-04-22T00:27:01.392Z,74.38
2023-04-22T00:29:29.130Z,74.75
2023-04-22T00:31:56.958Z,74.91
2023-04-22T00:34:24.781Z,74.27
2023-04-22T00:36:52.652Z,75.25
2023-04-22T00:39:20.608Z,74.68
2023-04-22T00:41:48.396Z,75.80
2023-04-22T00:44:17.305Z,76.40
2023-04-22T00:46:46.121Z,76.03
2023-04-22T00:49:15.586Z,76.29
2023-04-22T00:51:43.932Z,76.06
2023-04-22T00:54:11.704Z,76.25
2023-04-22T00:56:39.910Z,75.79
2023-04-22T00:59:09.448Z,77.19
2023-04-22T01:01:37.713Z,76.53
2023-04-22T01:04:05.612Z,76.65
2023-04-22T01:06:35.447Z,76.35
2023-04-22T01:09:03.284Z,76.27
2023-04-22T01:11:31.647Z,76.30
2023-04-22T01:13:59.381Z,76.65
2023-04-22T01:16:29.026Z,76.98
2023-04-22T01:18:57.034Z,77.18
2023-04-22T01:21:26.825Z,78.52
2023-04-22T01:23:54.599Z,75.41
2023-04-22T01:26:23.613Z,74.02
2023-04-22T01:28:52.022Z,76.26
2023-04-22T01:31:20.261Z,77.05
2023-04-22T01:33:48.483Z,77.39
2023-04-22T01:36:17.080Z,77.27
2023-04-22T01:38:45.221Z,77.72
2023-04-22T01:41:13.845Z,77.57
2023-04-22T01:43:42.960Z,76.81
2023-04-22T01:46:10.776Z,76.95
2023-04-22T01:48:38.674Z,78.27
2023-04-22T01:51:06.455Z,77.77
2023-04-22T01:53:34.274Z,78.26
2023-04-22T01:56:02.468Z,79.00
2023-04-22T01:58:30.869Z,78.56
2023-04-22T02:00:58.773Z,78.67
2023-04-22T02:03:26.657Z,78.39
2023-04-22T02:05:55.258Z,78.52
2023-04-22T02:08:23.366Z,78.60
2023-04-22T02:10:51.171Z,78.82
2023-04-22T02:13:18.959Z,78.84
2023-04-22T02:15:46.889Z,79.04
2023-04-22T02:18:14.655Z,79.05
2023-04-22T02:20:42.953Z,78.79
2023-04-22T02:23:11.497Z,78.63
2023-04-22T02:25:39.713Z,79.11
2023-04-22T02:28:08.590Z,78.56
2023-04-22T02:30:36.791Z,79.97
2023-04-22T02:33:06.731Z,79.95
2023-04-22T02:35:34.579Z,79.56
2023-04-22T02:38:02.999Z,79.46
2023-04-22T02:40:30.837Z,79.68
2023-04-22T02:42:58.642Z,79.61
2023-04-22T02:45:26.439Z,79.58
2023-04-22T02:47:54.313Z,79.66
2023-04-22T02:50:22.131Z,79.45
2023-04-22T02:52:49.942Z,79.59
2023-04-22T02:55:17.888Z,80.01
2023-04-22T02:57:46.144Z,79.80
2023-04-22T03:00:14.521Z,79.43
2023-04-22T03:02:42.506Z,79.46
2023-04-22T03:05:16.057Z,80.03
2023-04-22T03:07:44.666Z,79.67
2023-04-22T03:10:12.662Z,80.36
2023-04-22T03:12:40.891Z,80.58
2023-04-22T03:15:09.321Z,80.09
2023-04-22T03:17:37.221Z,80.08
2023-04-22T03:20:09.054Z,80.05
2023-04-22T03:22:36.987Z,78.92
2023-04-22T03:25:06.452Z,78.51
2023-04-22T03:27:34.286Z,78.88
2023-04-22T03:30:02.334Z,80.27
2023-04-22T03:32:30.696Z,80.63
2023-04-22T03:35:18.805Z,80.37
2023-04-22T03:37:48.137Z,80.65
2023-04-22T03:40:19.182Z,80.99
2023-04-22T03:42:47.163Z,80.35
2023-04-22T03:45:15.522Z,79.12
2023-04-22T03:47:46.436Z,79.15
2023-04-22T03:50:22.128Z,79.21
2023-04-22T03:52:50.385Z,79.80
2023-04-22T03:55:19.919Z,80.70
2023-04-22T03:57:48.082Z,80.14
2023-04-22T04:00:16.096Z,81.07
2023-04-22T04:02:45.162Z,80.58
2023-04-22T04:05:16.859Z,80.65
2023-04-22T04:07:44.779Z,80.72
2023-04-22T04:10:14.046Z,80.46
2023-04-22T04:12:41.867Z,79.27
2023-04-22T04:15:10.563Z,77.97
2023-04-22T04:17:38.449Z,78.36
2023-04-22T04:20:07.428Z,77.38
2023-04-22T04:22:36.123Z,77.12
2023-04-22T04:25:06.940Z,77.09
2023-04-22T04:27:39.254Z,76.58
2023-04-22T04:30:08.132Z,76.57
2023-04-22T04:32:43.101Z,76.71
2023-04-22T04:35:16.084Z,76.91
2023-04-22T04:37:47.391Z,76.67
2023-04-22T04:40:16.335Z,76.91
2023-04-22T04:42:48.578Z,77.02
2023-04-22T04:45:20.748Z,78.07
2023-04-22T04:47:50.828Z,77.19
2023-04-22T04:50:23.371Z,77.11
2023-04-22T04:52:52.725Z,77.61
2023-04-22T04:55:24.301Z,77.63
2023-04-22T04:57:52.601Z,77.56
2023-04-22T05:00:20.574Z,77.41
2023-04-22T05:02:49.077Z,77.26
2023-04-22T05:05:17.008Z,77.10
2023-04-22T05:07:44.975Z,76.85
2023-04-22T05:10:13.783Z,76.77
2023-04-22T05:12:42.065Z,76.75
2023-04-22T05:15:11.834Z,76.69
2023-04-22T05:17:40.705Z,76.98
2023-04-22T05:20:09.482Z,77.43
2023-04-22T05:22:37.433Z,76.71
2023-04-22T05:25:05.709Z,76.70
2023-04-22T05:27:35.519Z,76.84
2023-04-22T05:30:04.486Z,76.03
2023-04-22T05:32:32.790Z,75.32
2023-04-22T05:35:01.381Z,75.10
2023-04-22T05:37:29.334Z,74.66
2023-04-22T05:39:57.117Z,74.67
2023-04-22T05:42:25.260Z,74.32
2023-04-22T05:44:53.418Z,74.31
2023-04-22T05:47:21.380Z,73.96
2023-04-22T05:49:49.886Z,73.91
2023-04-22T05:52:30.495Z,73.51
2023-04-22T05:55:04.388Z,73.54
2023-04-22T05:57:32.261Z,73.36
2023-04-22T06:00:00.826Z,72.27
2023-04-22T06:02:28.706Z,72.23
2023-04-22T06:04:58.214Z,71.78
2023-04-22T06:07:26.577Z,71.62
2023-04-22T06:10:03.802Z,71.55
2023-04-22T06:12:34.516Z,69.55
2023-04-22T06:15:02.374Z,69.47
2023-04-22T06:17:30.496Z,69.39
2023-04-22T06:19:58.780Z,69.30
2023-04-22T06:22:26.647Z,68.49
2023-04-22T06:24:54.445Z,67.23
2023-04-22T06:27:22.304Z,66.67
2023-04-22T06:29:50.096Z,67.22
2023-04-22T06:32:17.939Z,66.89
2023-04-22T06:34:45.775Z,65.97
2023-04-22T06:37:13.662Z,66.23
2023-04-22T06:39:41.868Z,67.16
2023-04-22T06:42:41.866Z,65.24
2023-04-22T06:45:39.274Z,65.42
2023-04-22T06:48:42.539Z,64.29
2023-04-22T06:51:21.340Z,65.59
2023-04-22T06:53:49.237Z,65.41
2023-04-22T06:56:17.278Z,64.04
2023-04-22T06:58:45.107Z,62.99
2023-04-22T07:01:13.193Z,62.65
2023-04-22T07:03:41.759Z,62.34
2023-04-22T07:06:12.124Z,62.77
2023-04-22T07:08:40.248Z,62.58
2023-04-22T07:11:09.027Z,61.53
2023-04-22T07:14:03.040Z,61.02
2023-04-22T07:16:31.077Z,60.29
2023-04-22T07:18:59.288Z,59.74
2023-04-22T07:21:27.048Z,59.21
2023-04-22T07:23:54.929Z,57.15
2023-04-22T07:26:22.699Z,55.96
2023-04-22T07:28:50.490Z,54.36
2023-04-22T07:31:18.416Z,55.48
2023-04-22T07:33:46.383Z,55.51
2023-04-22T07:36:14.074Z,53.97
2023-04-22T07:38:41.800Z,55.47
2023-04-22T07:41:09.644Z,56.22
2023-04-22T07:43:37.585Z,55.78
2023-04-22T07:46:05.395Z,52.44
2023-04-22T07:48:33.186Z,52.93
2023-04-22T07:51:00.957Z,52.90
2023-04-22T07:53:28.750Z,52.53
2023-04-22T07:55:56.635Z,50.63
2023-04-22T07:58:24.334Z,47.90
2023-04-22T08:00:52.147Z,48.67
2023-04-22T08:03:20.061Z,48.01
2023-04-22T08:05:48.046Z,46.76
2023-04-22T08:08:15.783Z,47.51
2023-04-22T08:10:43.554Z,48.05
2023-04-22T08:13:11.604Z,48.10
2023-04-22T08:15:40.001Z,47.25
2023-04-22T08:18:07.848Z,47.62
2023-04-22T08:20:35.633Z,45.44
2023-04-22T08:23:03.418Z,45.45
2023-04-22T08:25:31.613Z,46.28
2023-04-22T08:27:59.407Z,43.41
2023-04-22T08:30:27.174Z,43.47
2023-04-22T08:32:55.079Z,42.28
2023-04-22T08:35:22.846Z,42.51
2023-04-22T08:37:50.668Z,42.52
2023-04-22T08:40:18.496Z,41.86
2023-04-22T08:42:47.010Z,42.59
2023-04-22T08:45:16.111Z,42.08
2023-04-22T08:47:44.126Z,40.43
2023-04-22T08:50:12.122Z,37.99
2023-04-22T08:52:44.179Z,38.08
2023-04-22T08:55:11.906Z,39.87
2023-04-22T08:57:41.035Z,40.01
2023-04-22T09:00:09.853Z,37.54
2023-04-22T09:02:38.818Z,38.99
2023-04-22T09:05:09.141Z,37.70
2023-04-22T09:07:38.674Z,37.56
2023-04-22T09:10:08.382Z,34.77
2023-04-22T09:12:37.481Z,35.28
2023-04-22T09:15:07.325Z,34.28
2023-04-22T09:17:38.349Z,35.19
2023-04-22T09:20:08.781Z,35.70
2023-04-22T09:22:48.534Z,32.02
2023-04-22T09:25:17.643Z,33.55
2023-04-22T09:28:03.849Z,31.59
2023-04-22T09:30:37.695Z,32.61
2023-04-22T09:33:07.397Z,31.27
2023-04-22T09:35:37.871Z,31.58
2023-04-22T09:38:08.276Z,31.29
2023-04-22T09:40:37.968Z,32.25
2023-04-22T09:43:07.675Z,30.66
2023-04-22T09:45:36.311Z,29.82
2023-04-22T09:48:17.833Z,28.55
2023-04-22T09:50:49.334Z,29.73
2023-04-22T09:53:20.315Z,27.89
2023-04-22T09:55:51.282Z,29.33
2023-04-22T09:58:21.486Z,27.82
2023-04-22T10:00:58.181Z,26.40
2023-04-22T10:03:26.228Z,26.58
2023-04-22T10:05:54.090Z,27.72
2023-04-22T10:08:21.884Z,28.23
2023-04-22T10:10:49.624Z,28.23
2023-04-22T10:13:17.360Z,28.50
2023-04-22T10:15:53.569Z,27.77
2023-04-22T10:18:29.721Z,28.13
2023-04-22T10:20:59.169Z,27.52
2023-04-22T10:23:32.998Z,25.10
2023-04-22T10:26:01.046Z,26.41
2023-04-22T10:28:30.304Z,27.37
2023-04-22T10:30:58.142Z,28.08
2023-04-22T10:33:28.939Z,25.64
2023-04-22T10:36:06.068Z,26.06
2023-04-22T10:38:57.766Z,25.17
2023-04-22T10:41:29.136Z,23.56
2023-04-22T10:44:01.696Z,24.85
2023-04-22T10:46:32.903Z,24.24
2023-04-22T10:49:11.290Z,25.66
2023-04-22T10:51:39.162Z,25.94
2023-04-22T10:54:07.593Z,24.49
2023-04-22T10:56:37.469Z,23.76
2023-04-22T10:59:17.242Z,23.54
2023-04-22T11:01:45.283Z,24.62
2023-04-22T11:04:20.881Z,26.03
2023-04-22T11:07:26.731Z,26.13
2023-04-22T11:10:09.667Z,25.63
2023-04-22T11:12:42.052Z,25.78
2023-04-22T11:15:13.233Z,24.15
2023-04-22T11:17:52.148Z,25.18
2023-04-22T11:20:20.635Z,26.02
2023-04-22T11:22:56.794Z,26.81
2023-04-22T11:25:26.203Z,25.34
2023-04-22T11:27:55.389Z,25.28
2023-04-22T11:30:25.024Z,26.53
2023-04-22T11:32:55.975Z,24.30
2023-04-22T11:35:27.063Z,26.00
2023-04-22T11:38:01.327Z,25.99
2023-04-22T11:40:33.319Z,22.99
2023-04-22T11:43:05.105Z,25.24
2023-04-22T11:45:34.877Z,21.92
2023-04-22T11:48:05.390Z,23.01
2023-04-22T11:50:38.452Z,22.60
2023-04-22T11:53:20.959Z,23.34
2023-04-22T11:55:51.248Z,23.36
2023-04-22T11:58:27.368Z,23.01
2023-04-22T12:00:58.592Z,22.47
2023-04-22T12:03:31.398Z,22.59
2023-04-22T12:06:04.744Z,22.12
2023-04-22T12:08:35.664Z,21.72
2023-04-22T12:11:05.969Z,23.04
2023-04-22T12:13:42.221Z,21.57
2023-04-22T12:16:13.442Z,22.63
2023-04-22T12:18:47.925Z,23.80
2023-04-22T12:21:19.100Z,23.70
2023-04-22T12:23:54.141Z,23.48
2023-04-22T12:26:26.686Z,24.35
2023-04-22T12:28:57.028Z,24.36
2023-04-22T12:31:25.289Z,24.14
2023-04-22T12:33:54.174Z,24.50
2023-04-22T12:36:22.316Z,24.53
2023-04-22T12:38:51.114Z,23.75
2023-04-22T12:41:19.078Z,24.40
2023-04-22T12:43:47.075Z,24.26
2023-04-22T12:46:15.098Z,24.37
2023-04-22T12:48:43.082Z,23.58
2023-04-22T12:51:10.866Z,24.14
2023-04-22T12:53:38.666Z,24.13
2023-04-22T12:56:06.468Z,24.32
2023-04-22T12:58:34.174Z,26.18
2023-04-22T13:01:01.932Z,25.85
2023-04-22T13:03:29.846Z,25.75
2023-04-22T13:05:57.722Z,25.94
2023-04-22T13:08:25.997Z,26.71
2023-04-22T13:10:54.099Z,24.89
2023-04-22T13:13:21.865Z,24.92
2023-04-22T13:15:53.828Z,25.62
2023-04-22T13:18:23.681Z,24.48
2023-04-22T13:20:51.747Z,25.96
2023-04-22T13:23:21.923Z,26.04
2023-04-22T13:25:50.568Z,25.54
2023-04-22T13:28:19.028Z,27.10
2023-04-22T13:30:47.089Z,25.68
2023-04-22T13:33:14.957Z,25.43
2023-04-22T13:35:43.032Z,25.56
2023-04-22T13:38:11.002Z,24.82
2023-04-22T13:40:38.810Z,24.65
2023-04-22T13:43:08.812Z,24.02
2023-04-22T13:45:37.047Z,23.87
2023-04-22T13:48:05.198Z,23.51
2023-04-22T13:50:34.046Z,24.32
2023-04-22T13:53:03.939Z,23.43
2023-04-22T13:55:31.839Z,22.98
2023-04-22T13:58:01.270Z,24.63
2023-04-22T14:00:29.154Z,24.61
2023-04-22T14:02:57.336Z,24.56
2023-04-22T14:05:25.886Z,24.49
2023-04-22T14:07:54.501Z,24.18
2023-04-22T14:10:22.543Z,23.74
2023-04-22T14:12:50.865Z,25.40
2023-04-22T14:15:19.205Z,25.08
2023-04-22T14:17:49.524Z,24.20
2023-04-22T14:20:18.087Z,24.67
2023-04-22T14:22:46.483Z,23.68
2023-04-22T14:25:14.788Z,24.36
2023-04-22T14:27:42.940Z,24.35
2023-04-22T14:30:11.416Z,24.43
2023-04-22T14:32:39.304Z,23.69
2023-04-22T14:35:07.332Z,24.56
2023-04-22T14:37:35.831Z,25.31
2023-04-22T14:40:04.281Z,25.40
2023-04-22T14:42:32.207Z,25.82
2023-04-22T14:45:00.134Z,25.64
2023-04-22T14:47:28.135Z,26.19
2023-04-22T14:49:56.389Z,26.32
2023-04-22T14:52:24.415Z,25.64
2023-04-22T14:54:52.306Z,25.32
2023-04-22T14:57:20.102Z,25.38
2023-04-22T14:59:48.163Z,24.81
2023-04-22T15:02:16.338Z,26.04
2023-04-22T15:04:44.573Z,26.02
2023-04-22T15:07:12.432Z,25.66
2023-04-22T15:09:40.608Z,25.84
2023-04-22T15:12:08.592Z,26.25
2023-04-22T15:14:36.652Z,26.04
2023-04-22T15:17:05.727Z,26.76
2023-04-22T15:19:33.528Z,25.04
2023-04-22T15:22:01.581Z,24.46
2023-04-22T15:24:29.326Z,24.87
2023-04-22T15:26:58.056Z,24.65
2023-04-22T15:29:26.664Z,24.85
2023-04-22T15:31:55.117Z,24.76
2023-04-22T15:34:23.889Z,24.91
2023-04-22T15:36:51.847Z,25.48
2023-04-22T15:39:20.803Z,26.46
2023-04-22T15:41:48.452Z,25.86
2023-04-22T15:44:16.849Z,26.10
2023-04-22T15:46:46.020Z,27.22
2023-04-22T15:49:14.895Z,26.65
2023-04-22T15:51:43.214Z,25.96
2023-04-22T15:54:12.341Z,26.31
2023-04-22T15:56:40.580Z,26.54
2023-04-22T15:59:08.362Z,26.75
2023-04-22T16:01:38.637Z,26.63
2023-04-22T16:04:07.715Z,27.00
2023-04-22T16:06:36.513Z,27.31
2023-04-22T16:09:05.018Z,27.86
2023-04-22T16:11:32.827Z,28.31
2023-04-22T16:14:02.038Z,28.10
2023-04-22T16:16:30.383Z,27.62
2023-04-22T16:18:59.904Z,27.80
2023-04-22T16:21:28.858Z,27.86
2023-04-22T16:23:56.705Z,28.32
2023-04-22T16:26:24.536Z,28.72
2023-04-22T16:28:52.278Z,28.62
2023-04-22T16:31:23.065Z,28.60
2023-04-22T16:33:51.852Z,28.45
2023-04-22T16:36:19.605Z,28.87
2023-04-22T16:38:47.310Z,29.06
2023-04-22T16:41:15.536Z,29.27
2023-04-22T16:43:43.361Z,30.10
2023-04-22T16:46:11.459Z,30.54
2023-04-22T16:48:39.444Z,29.79
2023-04-22T16:51:07.287Z,30.16
2023-04-22T16:53:35.895Z,30.35
2023-04-22T16:56:03.771Z,31.49
2023-04-22T16:58:31.555Z,31.38
2023-04-22T17:00:59.394Z,33.14
2023-04-22T17:03:27.254Z,32.88
2023-04-22T17:05:55.741Z,33.26
2023-04-22T17:08:23.516Z,34.31
2023-04-22T17:10:52.467Z,34.78
2023-04-22T17:13:20.873Z,35.26
2023-04-22T17:15:48.764Z,35.60
2023-04-22T17:18:16.621Z,35.87
2023-04-22T17:20:44.537Z,36.38
2023-04-22T17:23:12.322Z,36.80
2023-04-22T17:25:40.125Z,37.31
2023-04-22T17:28:08.093Z,37.78
2023-04-22T17:30:36.149Z,38.13
2023-04-22T17:33:04.094Z,38.80
2023-04-22T17:35:31.858Z,39.81
2023-04-22T17:37:59.594Z,40.32
2023-04-22T17:40:27.391Z,39.55
2023-04-22T17:42:55.744Z,40.70
2023-04-22T17:45:23.671Z,42.30
2023-04-22T17:47:51.455Z,42.87
2023-04-22T17:50:19.704Z,43.11
2023-04-22T17:52:47.567Z,43.50
2023-04-22T17:55:15.546Z,42.75
2023-04-22T17:57:43.252Z,45.78
2023-04-22T18:00:11.737Z,45.66
2023-04-22T18:02:41.864Z,46.01
2023-04-22T18:05:10.053Z,46.49
2023-04-22T18:07:37.849Z,46.77
2023-04-22T18:10:07.525Z,47.14
2023-04-22T18:12:35.504Z,47.61
2023-04-22T18:15:04.754Z,47.58
2023-04-22T18:17:32.717Z,48.32
2023-04-22T18:20:10.261Z,48.32
2023-04-22T18:22:45.581Z,48.88
2023-04-22T18:25:13.438Z,48.46
2023-04-22T18:27:41.798Z,48.83
2023-04-22T18:30:10.200Z,49.13
2023-04-22T18:32:38.647Z,49.71
2023-04-22T18:35:07.284Z,50.13
2023-04-22T18:37:35.186Z,50.80
2023-04-22T18:40:03.075Z,49.41
2023-04-22T18:42:30.837Z,51.24
2023-04-22T18:44:58.655Z,50.74
2023-04-22T18:47:26.842Z,51.24
2023-04-22T18:49:54.780Z,50.99
2023-04-22T18:52:22.477Z,51.91
2023-04-22T18:54:50.366Z,52.92
2023-04-22T18:57:18.191Z,53.73
2023-04-22T18:59:46.216Z,54.62
2023-04-22T19:02:14.082Z,54.59
2023-04-22T19:04:42.281Z,51.87
2023-04-22T19:07:10.487Z,54.10
2023-04-22T19:09:38.296Z,55.47
2023-04-22T19:12:13.457Z,55.66
2023-04-22T19:14:41.723Z,55.92
2023-04-22T19:17:10.114Z,55.67
2023-04-22T19:19:38.104Z,56.37
2023-04-22T19:22:05.988Z,56.52
2023-04-22T19:24:35.271Z,56.64
2023-04-22T19:27:03.466Z,56.97
2023-04-22T19:29:31.541Z,59.41
2023-04-22T19:31:59.855Z,57.00
2023-04-22T19:34:28.676Z,58.60
2023-04-22T19:36:56.485Z,58.90
2023-04-22T19:39:24.454Z,59.65
2023-04-22T19:41:52.455Z,59.41
2023-04-22T19:44:20.214Z,59.84
2023-04-22T19:46:48.432Z,59.73
2023-04-22T19:49:17.542Z,61.11
2023-04-22T19:51:45.945Z,61.71
2023-04-22T19:54:14.978Z,62.19
2023-04-22T19:56:43.451Z,62.10
2023-04-22T19:59:13.086Z,61.50
2023-04-22T20:01:41.306Z,62.58
2023-04-22T20:04:09.472Z,63.41
2023-04-22T20:06:38.187Z,62.43
2023-04-22T20:09:07.147Z,63.40
2023-04-22T20:11:35.304Z,63.11
2023-04-22T20:14:07.365Z,63.95
2023-04-22T20:16:36.293Z,63.70
2023-04-22T20:19:04.619Z,62.96
2023-04-22T20:21:34.453Z,63.60
2023-04-22T20:24:04.365Z,64.86
2023-04-22T20:26:32.718Z,66.17
2023-04-22T20:29:01.288Z,65.54
2023-04-22T20:31:29.362Z,63.74
2023-04-22T20:33:57.291Z,67.15
2023-04-22T20:36:26.492Z,66.86
2023-04-22T20:38:55.062Z,68.20
2023-04-22T20:41:24.612Z,66.59
2023-04-22T20:43:53.163Z,66.91
2023-04-22T20:46:23.093Z,67.76
2023-04-22T20:48:51.735Z,66.44
2023-04-22T20:51:19.624Z,68.39
2023-04-22T20:53:47.436Z,66.85
2023-04-22T20:56:15.723Z,67.55
2023-04-22T20:58:43.447Z,67.73
2023-04-22T21:01:12.161Z,68.81
2023-04-22T21:03:40.284Z,69.32
2023-04-22T21:06:09.064Z,69.20
2023-04-22T21:08:39.417Z,69.32
2023-04-22T21:11:07.507Z,70.53
2023-04-22T21:13:35.927Z,70.49
2023-04-22T21:16:07.908Z,70.18
2023-04-22T21:18:39.486Z,70.81
2023-04-22T21:21:08.226Z,70.71
2023-04-22T21:23:36.617Z,70.61
2023-04-22T21:26:05.494Z,71.03
2023-04-22T21:28:33.596Z,71.63
2023-04-22T21:31:01.699Z,71.16
2023-04-22T21:33:29.460Z,70.85
2023-04-22T21:35:57.260Z,70.30
2023-04-22T21:38:25.692Z,70.01
2023-04-22T21:40:53.525Z,70.54
2023-04-22T21:43:21.285Z,70.36
2023-04-22T21:45:49.265Z,71.59
2023-04-22T21:48:17.174Z,71.19
2023-04-22T21:50:44.898Z,71.60
2023-04-22T21:53:13.187Z,71.62
2023-04-22T21:55:41.661Z,70.92
2023-04-22T21:58:09.450Z,70.78
2023-04-22T22:00:37.896Z,71.62
2023-04-22T22:03:06.233Z,71.03
2023-04-22T22:05:34.261Z,71.02
2023-04-22T22:08:02.042Z,71.00
2023-04-22T22:10:30.067Z,72.20
2023-04-22T22:12:57.795Z,70.93
2023-04-22T22:15:25.666Z,71.71
2023-04-22T22:17:53.484Z,72.49
2023-04-22T22:20:21.308Z,70.89
2023-04-22T22:22:48.998Z,72.16
2023-04-22T22:25:17.083Z,72.38
2023-04-22T22:27:46.719Z,71.93
2023-04-22T22:30:19.036Z,71.22
2023-04-22T22:32:47.043Z,71.77
2023-04-22T22:35:15.206Z,72.24
2023-04-22T22:37:44.779Z,71.91
2023-04-22T22:40:12.623Z,72.13
2023-04-22T22:42:40.657Z,73.76
2023-04-22T22:45:09.156Z,72.47
2023-04-22T22:47:37.189Z,72.56
2023-04-22T22:50:07.008Z,71.90
2023-04-22T22:52:34.798Z,71.24
2023-04-22T22:55:02.670Z,74.30
2023-04-22T22:57:30.419Z,72.83
2023-04-22T22:59:58.214Z,73.62
2023-04-22T23:02:26.421Z,72.75
2023-04-22T23:04:54.984Z,72.34
2023-04-22T23:07:22.694Z,72.14
2023-04-22T23:09:50.516Z,73.03
2023-04-22T23:12:18.288Z,72.31
2023-04-22T23:14:46.025Z,72.55
2023-04-22T23:17:13.816Z,73.65
2023-04-22T23:19:43.223Z,74.62
2023-04-22T23:22:12.475Z,74.69
2023-04-22T23:24:40.807Z,74.52
2023-04-22T23:27:09.016Z,74.33
2023-04-22T23:29:37.369Z,74.04
2023-04-22T23:32:07.555Z,73.83
2023-04-22T23:34:35.851Z,74.36
2023-04-22T23:37:06.046Z,74.02
2023-04-22T23:39:33.972Z,74.63
2023-04-22T23:42:02.546Z,74.03
2023-04-22T23:44:30.280Z,73.79
2023-04-22T23:46:58.101Z,76.62
2023-04-22T23:49:25.855Z,75.43
2023-04-22T23:51:53.812Z,76.14
2023-04-22T23:54:22.182Z,78.16
2023-04-22T23:56:50.564Z,76.20
2023-04-22T23:59:18.629Z,75.86
